Time;durP1;ratioP1;P1;durP2;ratioP2;P2;SDS_P1;SDS_P2;PMS_P1;PMS_P2;Temp;Humidity;BMP_temperature;BMP_pressure;BME280_temperature;BME280_humidity;BME280_pressure;Samples;Min_cycle;Max_cycle;Signal;HPM_P1;HPM_P2
2021/04/15 00:00:43;;;;;;;1.60;0.73;;;;;;;;;;4968920;28;20477;-84
2021/04/15 00:03:10;;;;;;;1.38;0.80;;;;;;;;;;4952786;29;20039;-84
2021/04/15 00:05:36;;;;;;;1.00;0.80;;;;;;;;;;4952939;29;20039;-85
2021/04/15 00:08:03;;;;;;;3.15;1.00;;;;;;;;;;4952647;28;20407;-85
2021/04/15 00:10:34;;;;;;;6.07;0.93;;;;;;;;;;4972584;28;20498;-85
2021/04/15 00:13:00;;;;;;;3.30;1.02;;;;;;;;;;4958049;29;20050;-85
2021/04/15 00:15:26;;;;;;;1.35;0.90;;;;;;;;;;4972727;28;20031;-84
2021/04/15 00:17:52;;;;;;;2.35;1.00;;;;;;;;;;4972583;28;20118;-84
2021/04/15 00:20:18;;;;;;;1.95;0.90;;;;;;;;;;4972623;28;20047;-84
2021/04/15 00:22:44;;;;;;;2.58;1.08;;;;;;;;;;4972565;28;20170;-84
2021/04/15 00:25:11;;;;;;;1.65;1.00;;;;;;;;;;4956467;29;20483;-84
2021/04/15 00:27:37;;;;;;;1.63;0.90;;;;;;;;;;4972432;28;20046;-84
2021/04/15 00:30:04;;;;;;;1.15;0.95;;;;;;;;;;4957290;28;20074;-84
2021/04/15 00:32:30;;;;;;;2.30;0.98;;;;;;;;;;4956636;29;20229;-84
2021/04/15 00:34:56;;;;;;;1.58;0.98;;;;;;;;;;4940605;29;20046;-84
2021/04/15 00:37:22;;;;;;;0.82;0.63;;;;;;;;;;4957541;29;20250;-84
2021/04/15 00:39:48;;;;;;;1.23;0.90;;;;;;;;;;4956292;29;20579;-84
2021/04/15 00:42:14;;;;;;;1.52;1.10;;;;;;;;;;4956299;29;20066;-84
2021/04/15 00:44:41;;;;;;;1.33;0.90;;;;;;;;;;4956164;29;20043;-83
2021/04/15 00:47:13;;;;;;;1.30;1.00;;;;;;;;;;4956091;29;20040;-85
2021/04/15 00:49:45;;;;;;;2.72;0.70;;;;;;;;;;4956106;29;20114;-87
2021/04/15 00:52:13;;;;;;;2.70;1.00;;;;;;;;;;4956084;29;20045;-83
2021/04/15 00:54:44;;;;;;;3.03;1.00;;;;;;;;;;4955979;29;20039;-83
2021/04/15 00:57:24;;;;;;;2.30;0.80;;;;;;;;;;4924169;29;20047;-83
2021/04/15 00:59:50;;;;;;;1.23;1.00;;;;;;;;;;4955872;29;20065;-83
2021/04/15 01:02:16;;;;;;;1.50;1.10;;;;;;;;;;4955873;29;20039;-83
2021/04/15 01:04:43;;;;;;;2.17;0.85;;;;;;;;;;4939836;29;20127;-83
2021/04/15 01:07:09;;;;;;;1.67;0.98;;;;;;;;;;4955697;29;20044;-83
2021/04/15 01:09:35;;;;;;;1.88;1.05;;;;;;;;;;4939624;29;20497;-83
2021/04/15 01:12:09;;;;;;;2.10;1.00;;;;;;;;;;4955820;29;20078;-83
2021/04/15 01:14:50;;;;;;;2.25;1.00;;;;;;;;;;4955659;29;20035;-83
2021/04/15 01:17:17;;;;;;;1.75;1.00;;;;;;;;;;4956739;29;20479;-83
2021/04/15 01:20:04;;;;;;;1.50;0.77;;;;;;;;;;4955012;28;20439;-83
2021/04/15 01:22:33;;;;;;;1.65;1.10;;;;;;;;;;4955575;29;20035;-81
2021/04/15 01:24:59;;;;;;;1.83;1.00;;;;;;;;;;4939551;29;20043;-84
2021/04/15 01:27:45;;;;;;;1.20;0.80;;;;;;;;;;4956618;29;20040;-86
2021/04/15 01:30:11;;;;;;;2.03;0.80;;;;;;;;;;4939238;29;20079;-85
2021/04/15 01:32:58;;;;;;;2.58;0.90;;;;;;;;;;4956458;29;20061;-84
2021/04/15 01:35:26;;;;;;;1.08;0.70;;;;;;;;;;4946272;29;20511;-84
2021/04/15 01:37:54;;;;;;;2.33;1.10;;;;;;;;;;4939273;29;20043;-85
2021/04/15 01:40:24;;;;;;;1.70;1.10;;;;;;;;;;4939315;29;20050;-84
2021/04/15 01:42:54;;;;;;;1.90;1.20;;;;;;;;;;4939214;29;20043;-84
2021/04/15 01:45:21;;;;;;;2.15;0.75;;;;;;;;;;4956160;29;20450;-84
2021/04/15 01:47:52;;;;;;;0.68;0.50;;;;;;;;;;4923326;29;20494;-84
2021/04/15 01:50:23;;;;;;;0.90;0.47;;;;;;;;;;4923120;29;20066;-84
2021/04/15 01:52:49;;;;;;;1.30;0.80;;;;;;;;;;4956504;29;20071;-84
2021/04/15 01:55:17;;;;;;;2.80;0.90;;;;;;;;;;4938969;29;20039;-84
2021/04/15 01:57:45;;;;;;;0.98;0.73;;;;;;;;;;4939081;29;20035;-84
2021/04/15 02:00:23;;;;;;;1.45;1.08;;;;;;;;;;4939045;29;20050;-84
2021/04/15 02:02:50;;;;;;;1.60;0.95;;;;;;;;;;4938933;29;20035;-84
2021/04/15 02:05:22;;;;;;;1.27;0.77;;;;;;;;;;4938877;29;20043;-83
2021/04/15 02:07:53;;;;;;;1.77;0.90;;;;;;;;;;4938790;29;20098;-84
2021/04/15 02:10:19;;;;;;;1.40;0.85;;;;;;;;;;4938747;29;20510;-83
2021/04/15 02:12:46;;;;;;;2.15;1.10;;;;;;;;;;4938758;29;20047;-83
2021/04/15 02:15:16;;;;;;;1.67;0.80;;;;;;;;;;4922779;29;20113;-84
2021/04/15 02:17:42;;;;;;;2.70;1.05;;;;;;;;;;4922613;29;20046;-83
2021/04/15 02:20:19;;;;;;;1.77;0.98;;;;;;;;;;4938699;29;20039;-84
2021/04/15 02:22:48;;;;;;;1.77;0.90;;;;;;;;;;4938518;29;20090;-84
2021/04/15 02:25:21;;;;;;;1.50;0.90;;;;;;;;;;4955492;29;20042;-83
2021/04/15 02:28:03;;;;;;;2.17;0.98;;;;;;;;;;4938229;28;20043;-83
2021/04/15 02:30:49;;;;;;;1.58;1.20;;;;;;;;;;4954232;29;20121;-83
2021/04/15 02:33:25;;;;;;;1.38;1.10;;;;;;;;;;4953901;28;20031;-83
2021/04/15 02:35:52;;;;;;;2.50;1.30;;;;;;;;;;4954062;29;20049;-84
2021/04/15 02:38:21;;;;;;;1.77;1.30;;;;;;;;;;4938162;29;20509;-84
2021/04/15 02:40:51;;;;;;;1.50;1.00;;;;;;;;;;4954048;29;20047;-84
2021/04/15 02:43:25;;;;;;;2.15;1.40;;;;;;;;;;4954044;29;20117;-84
2021/04/15 02:45:53;;;;;;;3.35;1.60;;;;;;;;;;4953928;29;20086;-84
2021/04/15 02:48:21;;;;;;;3.53;1.40;;;;;;;;;;4937861;29;20082;-82
2021/04/15 02:50:47;;;;;;;2.60;1.40;;;;;;;;;;4953821;29;20117;-84
2021/04/15 02:53:17;;;;;;;2.15;1.05;;;;;;;;;;4937857;29;20071;-83
2021/04/15 02:55:46;;;;;;;2.85;0.90;;;;;;;;;;4954863;29;20039;-84
2021/04/15 02:58:15;;;;;;;4.07;1.17;;;;;;;;;;4953787;29;20035;-84
2021/04/15 03:00:41;;;;;;;1.85;1.10;;;;;;;;;;4953743;29;20043;-83
2021/04/15 03:03:10;;;;;;;1.67;1.00;;;;;;;;;;4953890;29;20035;-83
2021/04/15 03:05:45;;;;;;;1.52;0.90;;;;;;;;;;4953780;29;20043;-84
2021/04/15 03:08:11;;;;;;;1.00;0.77;;;;;;;;;;4954670;29;20122;-84
2021/04/15 03:10:38;;;;;;;1.60;1.05;;;;;;;;;;4953689;29;20039;-83
2021/04/15 03:13:06;;;;;;;1.88;1.20;;;;;;;;;;4953647;29;20046;-84
2021/04/15 03:15:34;;;;;;;1.55;0.85;;;;;;;;;;4953484;29;20046;-84
2021/04/15 03:18:04;;;;;;;1.85;1.10;;;;;;;;;;4937304;29;20074;-83
2021/04/15 03:20:31;;;;;;;1.70;1.00;;;;;;;;;;4937359;29;20403;-84
2021/04/15 03:23:01;;;;;;;2.08;1.27;;;;;;;;;;4921368;29;20082;-84
2021/04/15 03:25:28;;;;;;;1.40;0.90;;;;;;;;;;4953368;29;20039;-84
2021/04/15 03:27:54;;;;;;;1.73;0.75;;;;;;;;;;4954215;29;20043;-83
2021/04/15 03:30:26;;;;;;;1.50;0.75;;;;;;;;;;4954390;29;20043;-84
2021/04/15 03:32:53;;;;;;;1.02;0.60;;;;;;;;;;4954403;29;20122;-83
2021/04/15 03:35:19;;;;;;;1.20;0.60;;;;;;;;;;4953079;29;20043;-84
2021/04/15 03:37:54;;;;;;;0.60;0.50;;;;;;;;;;4954229;29;20035;-83
2021/04/15 03:40:23;;;;;;;1.55;0.93;;;;;;;;;;4937200;29;20073;-83
2021/04/15 03:42:50;;;;;;;1.33;1.02;;;;;;;;;;4952779;28;20070;-83
2021/04/15 03:45:18;;;;;;;1.40;0.93;;;;;;;;;;4952888;29;20043;-84
2021/04/15 03:47:48;;;;;;;1.48;0.82;;;;;;;;;;4937013;29;20040;-83
2021/04/15 03:50:18;;;;;;;0.95;0.68;;;;;;;;;;4954073;29;20050;-84
2021/04/15 03:52:45;;;;;;;1.23;1.02;;;;;;;;;;4953056;29;20090;-83
2021/04/15 03:55:30;;;;;;;1.30;0.60;;;;;;;;;;4952996;29;20043;-83
2021/04/15 03:57:58;;;;;;;0.82;0.57;;;;;;;;;;4953990;29;20039;-82
2021/04/15 04:00:26;;;;;;;0.75;0.50;;;;;;;;;;4936826;29;20530;-84
2021/04/15 04:02:56;;;;;;;0.68;0.50;;;;;;;;;;4954018;29;20039;-83
2021/04/15 04:05:27;;;;;;;0.93;0.68;;;;;;;;;;4952837;29;20041;-84
2021/04/15 04:07:58;;;;;;;0.90;0.60;;;;;;;;;;4936762;29;20043;-83
2021/04/15 04:10:25;;;;;;;4.28;0.90;;;;;;;;;;4952732;29;20070;-83
2021/04/15 04:12:59;;;;;;;2.50;0.82;;;;;;;;;;4952675;29;20406;-85
2021/04/15 04:15:29;;;;;;;1.92;1.00;;;;;;;;;;4952907;28;20039;-83
2021/04/15 04:18:03;;;;;;;2.38;1.10;;;;;;;;;;4952683;29;20043;-83
2021/04/15 04:20:30;;;;;;;2.40;1.33;;;;;;;;;;4952761;29;20043;-83
2021/04/15 04:23:10;;;;;;;2.78;1.17;;;;;;;;;;4936736;29;20039;-83
2021/04/15 04:25:43;;;;;;;1.98;1.20;;;;;;;;;;4921336;29;20047;-83
2021/04/15 04:28:12;;;;;;;2.72;1.33;;;;;;;;;;4932688;29;20216;-83
2021/04/15 04:30:50;;;;;;;3.35;1.80;;;;;;;;;;4902671;29;20043;-84
2021/04/15 04:33:17;;;;;;;4.63;1.60;;;;;;;;;;4917869;29;20044;-83
2021/04/15 04:35:43;;;;;;;2.33;1.38;;;;;;;;;;4917693;29;20087;-84
2021/04/15 04:38:10;;;;;;;3.38;1.55;;;;;;;;;;4917844;29;20066;-84
2021/04/15 04:40:37;;;;;;;2.22;1.40;;;;;;;;;;4918007;29;20064;-84
2021/04/15 04:43:09;;;;;;;3.72;1.20;;;;;;;;;;4902208;29;20054;-83
2021/04/15 04:45:35;;;;;;;3.05;1.35;;;;;;;;;;4902007;29;20055;-83
2021/04/15 04:48:06;;;;;;;4.40;1.90;;;;;;;;;;4901836;29;20103;-84
2021/04/15 04:50:51;;;;;;;4.78;1.65;;;;;;;;;;4918040;29;20036;-84
2021/04/15 04:53:23;;;;;;;4.03;1.45;;;;;;;;;;4917385;29;20414;-83
2021/04/15 04:55:50;;;;;;;3.83;1.80;;;;;;;;;;4936848;29;20044;-83
2021/04/15 04:58:17;;;;;;;3.67;1.45;;;;;;;;;;4905276;29;20284;-85
2021/04/15 05:00:47;;;;;;;7.03;2.40;;;;;;;;;;4921051;29;20127;-84
2021/04/15 05:03:23;;;;;;;3.17;1.65;;;;;;;;;;4920878;29;20094;-84
2021/04/15 05:05:57;;;;;;;3.33;1.70;;;;;;;;;;4921080;29;20475;-84
2021/04/15 05:08:24;;;;;;;3.90;1.73;;;;;;;;;;4921115;29;20400;-85
2021/04/15 05:10:54;;;;;;;3.38;2.13;;;;;;;;;;4920786;29;20040;-84
2021/04/15 05:13:21;;;;;;;6.18;2.00;;;;;;;;;;4920754;29;20039;-84
2021/04/15 05:15:47;;;;;;;3.33;1.80;;;;;;;;;;4920728;29;20118;-84
2021/04/15 05:18:15;;;;;;;5.45;2.28;;;;;;;;;;4920875;29;20039;-83
2021/04/15 05:20:41;;;;;;;6.60;2.25;;;;;;;;;;4920939;29;20058;-84
2021/04/15 05:23:21;;;;;;;7.57;2.80;;;;;;;;;;4904841;29;20047;-83
2021/04/15 05:26:02;;;;;;;6.95;3.30;;;;;;;;;;4904831;29;20492;-83
2021/04/15 05:28:29;;;;;;;7.50;3.08;;;;;;;;;;4943840;29;20055;-83
2021/04/15 05:30:55;;;;;;;8.45;3.20;;;;;;;;;;4955349;29;20483;-84
2021/04/15 05:33:22;;;;;;;5.13;2.65;;;;;;;;;;4955320;29;20039;-84
2021/04/15 05:36:03;;;;;;;7.30;2.83;;;;;;;;;;4955215;29;20046;-83
2021/04/15 05:38:30;;;;;;;5.00;2.92;;;;;;;;;;4955199;29;20567;-83
2021/04/15 05:40:56;;;;;;;10.20;2.72;;;;;;;;;;4955203;29;20039;-84
2021/04/15 05:43:22;;;;;;;8.07;2.90;;;;;;;;;;4939293;29;20453;-84
2021/04/15 05:45:48;;;;;;;7.75;3.05;;;;;;;;;;4956194;29;20063;-84
2021/04/15 05:48:15;;;;;;;8.57;3.58;;;;;;;;;;4955059;29;20047;-84
2021/04/15 05:50:45;;;;;;;8.20;3.25;;;;;;;;;;4955049;29;20047;-83
2021/04/15 05:53:16;;;;;;;6.55;3.35;;;;;;;;;;4955099;29;20047;-84
2021/04/15 05:55:42;;;;;;;6.85;3.28;;;;;;;;;;4955157;29;20207;-83
2021/04/15 05:58:14;;;;;;;9.15;2.90;;;;;;;;;;4955981;29;20054;-84
2021/04/15 06:00:40;;;;;;;6.68;3.20;;;;;;;;;;4938974;29;20073;-85
2021/04/15 06:03:06;;;;;;;5.40;2.72;;;;;;;;;;4938775;29;20042;-85
2021/04/15 06:05:48;;;;;;;10.82;2.90;;;;;;;;;;4938851;29;20054;-86
2021/04/15 06:08:14;;;;;;;7.22;3.00;;;;;;;;;;4938444;29;20078;-88
2021/04/15 06:10:46;;;;;;;4.35;2.40;;;;;;;;;;4954737;29;20126;-87
2021/04/15 06:13:31;;;;;;;6.88;2.47;;;;;;;;;;4954796;29;20079;-86
2021/04/15 06:15:59;;;;;;;7.70;2.70;;;;;;;;;;4955607;29;20134;-88
2021/04/15 06:18:31;;;;;;;8.43;2.50;;;;;;;;;;4954540;29;20097;-86
2021/04/15 06:20:57;;;;;;;;;;;;;;;;;;4954960;29;20491;-88
2021/04/15 06:23:26;;;;;;;5.75;2.35;;;;;;;;;;4938688;29;19954;-84
2021/04/15 06:25:53;;;;;;;6.55;2.88;;;;;;;;;;4954308;28;20047;-87
2021/04/15 06:28:26;;;;;;;6.57;2.28;;;;;;;;;;4955998;28;20495;-84
2021/04/15 06:31:01;;;;;;;6.80;2.50;;;;;;;;;;4954234;29;20047;-85
2021/04/15 06:33:28;;;;;;;6.90;3.55;;;;;;;;;;4955494;29;20046;-87
2021/04/15 06:35:54;;;;;;;6.55;2.72;;;;;;;;;;4970136;28;20097;-90
2021/04/15 06:38:23;;;;;;;8.52;2.92;;;;;;;;;;4955219;29;20040;-85
2021/04/15 06:40:53;;;;;;;5.95;2.80;;;;;;;;;;4955120;29;20043;-85
2021/04/15 06:43:19;;;;;;;6.50;2.83;;;;;;;;;;4970078;28;20035;-84
2021/04/15 06:46:01;;;;;;;7.55;2.85;;;;;;;;;;4954098;29;20042;-84
2021/04/15 06:48:29;;;;;;;8.70;3.30;;;;;;;;;;4955137;29;20039;-85
2021/04/15 06:50:55;;;;;;;7.03;3.28;;;;;;;;;;4953811;29;20495;-84
2021/04/15 06:53:21;;;;;;;7.25;2.65;;;;;;;;;;4962589;28;20035;-85
2021/04/15 06:56:10;;;;;;;8.20;3.17;;;;;;;;;;4958549;28;20047;-86
2021/04/15 06:58:45;;;;;;;7.30;3.00;;;;;;;;;;4953400;28;20459;-86
2021/04/15 07:01:43;;;;;;;7.80;3.08;;;;;;;;;;4953776;29;20047;-86
2021/04/15 07:04:09;;;;;;;9.60;3.45;;;;;;;;;;4932408;29;20062;-87
2021/04/15 07:06:39;;;;;;;5.70;3.03;;;;;;;;;;4937776;29;20392;-86
2021/04/15 07:09:15;;;;;;;7.00;2.88;;;;;;;;;;4953461;29;20087;-86
2021/04/15 07:12:00;;;;;;;7.00;2.70;;;;;;;;;;4953586;29;20493;-86
2021/04/15 07:14:28;;;;;;;8.35;3.55;;;;;;;;;;4954659;29;20075;-86
2021/04/15 07:16:54;;;;;;;6.85;2.90;;;;;;;;;;4953470;29;20050;-86
2021/04/15 07:19:36;;;;;;;6.80;3.17;;;;;;;;;;4953785;28;20475;-86
2021/04/15 07:22:05;;;;;;;10.35;3.45;;;;;;;;;;4969438;28;20094;-86
2021/04/15 07:24:48;;;;;;;6.95;3.28;;;;;;;;;;4954434;29;20062;-87
2021/04/15 07:27:14;;;;;;;;;;;;;;;;;;4953831;29;20190;-87
2021/04/15 07:29:41;;;;;;;9.20;3.35;;;;;;;;;;4953075;29;20005;-87
2021/04/15 07:32:15;;;;;;;9.13;3.33;;;;;;;;;;4969150;28;20035;-86
2021/04/15 07:34:44;;;;;;;8.65;3.20;;;;;;;;;;4969222;28;20035;-86
2021/04/15 07:37:13;;;;;;;8.93;2.55;;;;;;;;;;4954291;29;20043;-86
2021/04/15 07:39:58;;;;;;;7.40;2.40;;;;;;;;;;4953010;29;20070;-87
2021/04/15 07:42:40;;;;;;;7.90;3.30;;;;;;;;;;4954278;29;20046;-86
2021/04/15 07:45:07;;;;;;;7.22;2.95;;;;;;;;;;4969184;28;20394;-86
2021/04/15 07:47:33;;;;;;;6.65;3.08;;;;;;;;;;4952743;29;20491;-86
2021/04/15 07:50:19;;;;;;;6.82;2.80;;;;;;;;;;4954070;29;20103;-86
2021/04/15 07:52:45;;;;;;;7.38;2.92;;;;;;;;;;4954231;29;20035;-87
2021/04/15 07:55:14;;;;;;;5.57;2.80;;;;;;;;;;4954145;29;20380;-86
2021/04/15 07:57:59;;;;;;;6.07;3.38;;;;;;;;;;4952630;29;20043;-86
2021/04/15 08:00:25;;;;;;;5.38;3.05;;;;;;;;;;4954101;29;20040;-87
2021/04/15 08:03:09;;;;;;;7.15;2.53;;;;;;;;;;4952870;29;20046;-86
2021/04/15 08:05:42;;;;;;;4.47;2.45;;;;;;;;;;4968805;28;20049;-86
2021/04/15 08:08:27;;;;;;;6.90;3.40;;;;;;;;;;4953840;28;20043;-87
2021/04/15 08:10:53;;;;;;;4.65;2.75;;;;;;;;;;4952711;29;20506;-85
2021/04/15 08:13:27;;;;;;;7.07;2.70;;;;;;;;;;4952886;29;20044;-87
2021/04/15 08:16:02;;;;;;;7.60;2.90;;;;;;;;;;4968721;28;20118;-86
2021/04/15 08:18:42;;;;;;;8.15;2.90;;;;;;;;;;4953885;29;20039;-86
2021/04/15 08:21:23;;;;;;;6.68;2.60;;;;;;;;;;4952751;29;20391;-86
2021/04/15 08:24:03;;;;;;;7.60;2.65;;;;;;;;;;4952748;29;20044;-86
2021/04/15 08:26:29;;;;;;;9.25;2.80;;;;;;;;;;4968608;28;20050;-86
2021/04/15 08:28:55;;;;;;;6.47;2.80;;;;;;;;;;4953682;28;20047;-87
2021/04/15 08:31:27;;;;;;;4.55;2.47;;;;;;;;;;4939989;29;20138;-86
2021/04/15 08:33:54;;;;;;;8.68;2.35;;;;;;;;;;4956494;29;20395;-87
2021/04/15 08:36:39;;;;;;;6.03;2.25;;;;;;;;;;4956304;28;20039;-87
2021/04/15 08:39:24;;;;;;;6.25;2.63;;;;;;;;;;4957523;29;20043;-87
2021/04/15 08:42:14;;;;;;;6.93;2.60;;;;;;;;;;4957546;29;20043;-86
2021/04/15 08:44:40;;;;;;;5.07;2.30;;;;;;;;;;4956291;29;20040;-87
2021/04/15 08:47:24;;;;;;;6.00;2.80;;;;;;;;;;4957305;29;20046;-87
2021/04/15 08:49:50;;;;;;;8.40;3.13;;;;;;;;;;4957208;29;20039;-87
2021/04/15 08:52:22;;;;;;;6.97;2.60;;;;;;;;;;4957347;29;20047;-87
2021/04/15 08:54:48;;;;;;;7.38;2.75;;;;;;;;;;4924584;29;20040;-86
2021/04/15 08:57:34;;;;;;;5.70;2.80;;;;;;;;;;4957093;29;20483;-87
2021/04/15 09:00:18;;;;;;;8.57;2.60;;;;;;;;;;4950202;29;20081;-87
2021/04/15 09:03:05;;;;;;;5.65;2.42;;;;;;;;;;4939879;29;20043;-87
2021/04/15 09:05:50;;;;;;;5.47;2.20;;;;;;;;;;4955851;29;20070;-87
2021/04/15 09:08:16;;;;;;;8.65;2.60;;;;;;;;;;4956028;28;20045;-87
2021/04/15 09:10:48;;;;;;;7.45;2.92;;;;;;;;;;4956812;29;20039;-87
2021/04/15 09:13:17;;;;;;;6.35;2.40;;;;;;;;;;4955670;29;20578;-87
2021/04/15 09:15:47;;;;;;;4.63;2.17;;;;;;;;;;4955675;29;20479;-87
2021/04/15 09:18:22;;;;;;;8.07;2.50;;;;;;;;;;4939574;29;20054;-86
2021/04/15 09:20:54;;;;;;;3.88;2.42;;;;;;;;;;4955662;28;20051;-86
2021/04/15 09:23:23;;;;;;;7.28;3.00;;;;;;;;;;4939661;29;20042;-87
2021/04/15 09:26:07;;;;;;;4.78;2.30;;;;;;;;;;4956635;29;20039;-87
2021/04/15 09:28:40;;;;;;;7.55;2.10;;;;;;;;;;4956453;28;20398;-87
2021/04/15 09:31:11;;;;;;;4.32;1.83;;;;;;;;;;4955368;29;20498;-86
2021/04/15 09:33:40;;;;;;;5.25;1.92;;;;;;;;;;4955322;29;20067;-87
2021/04/15 09:36:07;;;;;;;4.63;2.28;;;;;;;;;;4939253;29;20086;-87
2021/04/15 09:38:56;;;;;;;4.93;2.20;;;;;;;;;;4939229;29;20118;-87
2021/04/15 09:41:46;;;;;;;2.47;1.60;;;;;;;;;;4938466;29;20069;-87
2021/04/15 09:44:24;;;;;;;3.80;2.15;;;;;;;;;;4955028;29;20483;-87
2021/04/15 09:46:53;;;;;;;2.30;1.63;;;;;;;;;;4939144;29;20491;-87
2021/04/15 09:49:20;;;;;;;3.15;1.95;;;;;;;;;;4955162;29;20118;-87
2021/04/15 09:51:55;;;;;;;4.13;1.77;;;;;;;;;;4938979;29;20054;-86
2021/04/15 09:54:25;;;;;;;3.50;1.60;;;;;;;;;;4955039;29;20043;-87
2021/04/15 09:57:10;;;;;;;3.97;1.50;;;;;;;;;;4956094;29;20082;-87
2021/04/15 09:59:51;;;;;;;4.53;1.70;;;;;;;;;;4956001;29;20039;-87
2021/04/15 10:02:26;;;;;;;2.22;1.45;;;;;;;;;;4955991;29;20054;-87
2021/04/15 10:05:05;;;;;;;3.08;1.17;;;;;;;;;;4954723;29;20483;-87
2021/04/15 10:07:32;;;;;;;2.75;1.30;;;;;;;;;;4954770;28;20039;-87
2021/04/15 10:10:02;;;;;;;2.53;1.20;;;;;;;;;;4954515;29;20166;-87
2021/04/15 10:12:29;;;;;;;3.17;1.38;;;;;;;;;;4938692;29;20050;-86
2021/04/15 10:15:03;;;;;;;2.20;1.30;;;;;;;;;;4938547;29;20041;-87
2021/04/15 10:17:41;;;;;;;2.60;0.98;;;;;;;;;;4954362;29;20042;-87
2021/04/15 10:20:17;;;;;;;3.60;1.50;;;;;;;;;;4955719;29;20045;-84
2021/04/15 10:23:01;;;;;;;1.92;1.23;;;;;;;;;;4955495;29;20039;-86
2021/04/15 10:25:32;;;;;;;2.25;1.20;;;;;;;;;;4955518;29;20126;-87
2021/04/15 10:28:08;;;;;;;4.15;1.40;;;;;;;;;;4953943;28;20040;-86
2021/04/15 10:30:38;;;;;;;4.20;1.70;;;;;;;;;;4954187;29;20051;-87
2021/04/15 10:33:23;;;;;;;2.17;1.10;;;;;;;;;;4956183;29;20478;-86
2021/04/15 10:35:49;;;;;;;2.30;1.55;;;;;;;;;;4955229;29;20090;-87
2021/04/15 10:38:34;;;;;;;3.25;1.60;;;;;;;;;;4955222;29;20043;-87
2021/04/15 10:41:12;;;;;;;3.15;1.60;;;;;;;;;;4955268;29;20050;-87
2021/04/15 10:43:56;;;;;;;3.50;1.70;;;;;;;;;;4954084;29;20040;-87
2021/04/15 10:46:34;;;;;;;3.42;1.63;;;;;;;;;;4955209;29;20037;-87
2021/04/15 10:49:03;;;;;;;2.03;1.50;;;;;;;;;;4953976;29;20066;-88
2021/04/15 10:51:33;;;;;;;3.95;1.38;;;;;;;;;;4954993;29;20125;-83
2021/04/15 10:54:02;;;;;;;3.55;1.35;;;;;;;;;;4937645;29;20039;-89
2021/04/15 10:56:29;;;;;;;3.60;1.10;;;;;;;;;;4953785;29;20051;-86
2021/04/15 10:59:32;;;;;;;2.33;1.40;;;;;;;;;;4955074;29;20114;-86
2021/04/15 11:02:18;;;;;;;1.88;1.38;;;;;;;;;;4898856;29;20044;-86
2021/04/15 11:04:44;;;;;;;3.05;1.50;;;;;;;;;;4936112;29;20043;-86
2021/04/15 11:07:11;;;;;;;2.50;1.20;;;;;;;;;;4954484;29;20043;-86
2021/04/15 11:09:37;;;;;;;3.88;2.00;;;;;;;;;;4960897;28;20039;-84
2021/04/15 11:12:06;;;;;;;2.45;1.30;;;;;;;;;;4940277;29;20491;-84
2021/04/15 11:14:35;;;;;;;2.88;1.58;;;;;;;;;;4947136;28;20042;-88
2021/04/15 11:17:02;;;;;;;3.80;1.58;;;;;;;;;;4940437;28;20043;-85
2021/04/15 11:19:29;;;;;;;2.95;1.38;;;;;;;;;;4953379;28;20039;-86
2021/04/15 11:21:56;;;;;;;3.03;1.90;;;;;;;;;;4953333;28;20047;-86
2021/04/15 11:24:37;;;;;;;5.55;1.70;;;;;;;;;;4937230;29;20057;-86
2021/04/15 11:27:14;;;;;;;3.35;1.70;;;;;;;;;;4954319;29;20051;-86
2021/04/15 11:29:45;;;;;;;3.08;1.85;;;;;;;;;;4940575;28;20451;-84
2021/04/15 11:32:31;;;;;;;3.88;1.58;;;;;;;;;;4909907;29;20055;-86
2021/04/15 11:35:20;;;;;;;3.05;1.83;;;;;;;;;;4941428;29;20495;-85
2021/04/15 11:37:48;;;;;;;2.70;1.50;;;;;;;;;;4911133;29;20164;-85
2021/04/15 11:40:18;;;;;;;3.85;2.00;;;;;;;;;;4902593;29;20044;-85
2021/04/15 11:42:44;;;;;;;3.40;2.03;;;;;;;;;;4935022;29;20043;-87
2021/04/15 11:45:13;;;;;;;4.55;2.00;;;;;;;;;;4943777;29;20035;-85
2021/04/15 11:47:39;;;;;;;3.03;2.10;;;;;;;;;;4953858;29;20039;-85
2021/04/15 11:50:36;;;;;;;3.20;1.90;;;;;;;;;;4935464;29;20043;-85
2021/04/15 11:53:02;;;;;;;2.63;1.70;;;;;;;;;;4931880;29;20047;-86
2021/04/15 11:55:30;;;;;;;2.90;1.80;;;;;;;;;;4948779;29;20035;-86
2021/04/15 11:58:05;;;;;;;4.80;1.92;;;;;;;;;;4918362;29;20040;-86
2021/04/15 12:00:38;;;;;;;3.55;1.90;;;;;;;;;;4918034;29;20407;-86
2021/04/15 12:03:04;;;;;;;3.75;1.80;;;;;;;;;;4918159;29;20045;-86
2021/04/15 12:05:38;;;;;;;5.22;1.60;;;;;;;;;;4939391;29;20086;-87
2021/04/15 12:08:13;;;;;;;4.57;1.70;;;;;;;;;;4908626;29;20043;-87
2021/04/15 12:10:46;;;;;;;2.53;1.60;;;;;;;;;;4924163;29;20044;-86
2021/04/15 12:13:21;;;;;;;1.83;1.55;;;;;;;;;;4924171;29;20044;-87
2021/04/15 12:15:57;;;;;;;4.10;1.42;;;;;;;;;;4941097;29;20115;-86
2021/04/15 12:18:28;;;;;;;2.13;1.40;;;;;;;;;;4908289;29;20040;-86
2021/04/15 12:20:57;;;;;;;3.55;1.48;;;;;;;;;;4941220;29;20051;-84
2021/04/15 12:23:29;;;;;;;3.63;1.50;;;;;;;;;;4943091;29;20039;-87
2021/04/15 12:25:55;;;;;;;1.90;1.52;;;;;;;;;;4942848;29;20036;-87
2021/04/15 12:28:54;;;;;;;3.42;1.60;;;;;;;;;;4914701;28;20051;-86
2021/04/15 12:31:26;;;;;;;2.50;1.55;;;;;;;;;;4944990;28;20070;-86
2021/04/15 12:33:52;;;;;;;4.28;1.30;;;;;;;;;;4979176;28;20468;-87
2021/04/15 12:36:29;;;;;;;2.97;1.48;;;;;;;;;;4979357;28;20082;-86
2021/04/15 12:38:58;;;;;;;3.10;1.45;;;;;;;;;;4978231;28;20039;-86
2021/04/15 12:41:24;;;;;;;2.17;1.45;;;;;;;;;;4962241;28;20074;-85
2021/04/15 12:44:02;;;;;;;5.80;1.70;;;;;;;;;;4979467;28;20042;-86
2021/04/15 12:46:28;;;;;;;3.45;1.70;;;;;;;;;;4979487;28;20043;-86
2021/04/15 12:48:57;;;;;;;3.90;2.25;;;;;;;;;;4978139;28;20089;-86
2021/04/15 12:51:23;;;;;;;2.35;1.70;;;;;;;;;;4978039;28;20042;-86
2021/04/15 12:53:49;;;;;;;4.43;2.00;;;;;;;;;;4979205;28;20098;-86
2021/04/15 12:56:16;;;;;;;2.35;1.58;;;;;;;;;;4961995;28;20105;-86
2021/04/15 12:58:44;;;;;;;4.53;1.55;;;;;;;;;;4979086;28;20043;-87
2021/04/15 13:01:10;;;;;;;3.22;1.50;;;;;;;;;;4979268;28;20042;-87
2021/04/15 13:03:36;;;;;;;3.80;1.80;;;;;;;;;;4962066;28;20117;-86
2021/04/15 13:06:07;;;;;;;2.50;1.52;;;;;;;;;;4977975;28;20034;-86
2021/04/15 13:08:38;;;;;;;2.47;1.40;;;;;;;;;;4978289;28;20042;-86
2021/04/15 13:11:06;;;;;;;3.88;1.77;;;;;;;;;;4978004;28;20114;-85
2021/04/15 13:13:45;;;;;;;3.35;1.50;;;;;;;;;;4978097;28;20509;-87
2021/04/15 13:16:30;;;;;;;3.15;1.40;;;;;;;;;;4976553;28;20077;-86
2021/04/15 13:18:56;;;;;;;1.95;1.40;;;;;;;;;;4976031;28;20098;-86
2021/04/15 13:21:30;;;;;;;2.75;1.67;;;;;;;;;;4958927;28;20035;-87
2021/04/15 13:23:56;;;;;;;3.03;1.42;;;;;;;;;;4958810;28;20537;-87
2021/04/15 13:26:24;;;;;;;2.55;1.50;;;;;;;;;;4958893;28;20050;-86
2021/04/15 13:28:50;;;;;;;2.97;1.80;;;;;;;;;;4974541;28;20043;-86
2021/04/15 13:31:33;;;;;;;3.75;2.22;;;;;;;;;;4974692;28;20069;-87
2021/04/15 13:34:07;;;;;;;3.53;1.85;;;;;;;;;;4956733;28;20047;-85
2021/04/15 13:36:33;;;;;;;4.35;2.08;;;;;;;;;;4939236;29;20051;-87
2021/04/15 13:39:05;;;;;;;3.88;1.95;;;;;;;;;;4955318;29;20064;-86
2021/04/15 13:41:37;;;;;;;5.43;2.28;;;;;;;;;;4956133;29;20063;-86
2021/04/15 13:44:09;;;;;;;2.67;2.00;;;;;;;;;;4956093;29;20039;-86
2021/04/15 13:46:42;;;;;;;6.25;2.58;;;;;;;;;;4955983;28;20505;-86
2021/04/15 13:49:12;;;;;;;4.82;2.58;;;;;;;;;;4953780;29;20057;-85
2021/04/15 13:51:45;;;;;;;5.65;2.05;;;;;;;;;;4955988;28;20054;-86
2021/04/15 13:54:14;;;;;;;2.60;1.90;;;;;;;;;;4954651;28;20118;-87
2021/04/15 13:56:53;;;;;;;3.63;2.20;;;;;;;;;;4956009;28;20122;-86
2021/04/15 13:59:40;;;;;;;5.18;2.50;;;;;;;;;;4938970;29;20050;-86
2021/04/15 14:02:06;;;;;;;4.85;2.40;;;;;;;;;;4955245;28;20142;-85
2021/04/15 14:04:41;;;;;;;4.20;2.17;;;;;;;;;;4955932;29;20121;-85
2021/04/15 14:07:25;;;;;;;4.72;2.45;;;;;;;;;;4954680;29;20043;-85
2021/04/15 14:09:52;;;;;;;3.28;2.25;;;;;;;;;;4938546;29;20606;-86
2021/04/15 14:12:34;;;;;;;5.40;3.15;;;;;;;;;;4970612;28;20053;-85
2021/04/15 14:15:00;;;;;;;3.55;2.28;;;;;;;;;;4970663;28;20164;-84
2021/04/15 14:17:27;;;;;;;4.88;2.53;;;;;;;;;;4954496;29;20063;-85
2021/04/15 14:19:59;;;;;;;6.68;2.40;;;;;;;;;;4954057;28;20047;-86
2021/04/15 14:22:26;;;;;;;4.25;2.03;;;;;;;;;;4954451;29;20436;-85
2021/04/15 14:24:56;;;;;;;3.92;2.38;;;;;;;;;;4970359;28;20118;-85
2021/04/15 14:27:23;;;;;;;3.85;2.30;;;;;;;;;;4969673;28;20044;-84
2021/04/15 14:29:49;;;;;;;4.45;3.10;;;;;;;;;;4970062;28;20106;-84
2021/04/15 14:32:17;;;;;;;6.07;2.38;;;;;;;;;;4970329;28;20431;-84
2021/04/15 14:34:50;;;;;;;4.07;2.10;;;;;;;;;;4970150;28;20049;-84
2021/04/15 14:37:22;;;;;;;4.57;2.00;;;;;;;;;;4970108;28;20086;-84
2021/04/15 14:39:49;;;;;;;3.53;2.25;;;;;;;;;;4970070;28;20036;-84
2021/04/15 14:42:16;;;;;;;4.00;2.78;;;;;;;;;;4970015;28;20130;-84
2021/04/15 14:44:42;;;;;;;3.03;2.00;;;;;;;;;;4969998;28;20035;-84
2021/04/15 14:47:15;;;;;;;5.22;2.95;;;;;;;;;;4969892;28;20470;-85
2021/04/15 14:49:41;;;;;;;;;;;;;;;;;;4954197;29;20043;-84
2021/04/15 14:52:13;;;;;;;4.57;2.38;;;;;;;;;;4953642;29;19923;-83
2021/04/15 14:54:39;;;;;;;6.68;2.88;;;;;;;;;;4953919;29;20083;-85
2021/04/15 14:57:09;;;;;;;4.00;2.55;;;;;;;;;;4953468;29;20456;-85
2021/04/15 14:59:39;;;;;;;5.25;3.13;;;;;;;;;;4969688;28;20047;-84
2021/04/15 15:02:08;;;;;;;4.32;2.42;;;;;;;;;;4953541;29;20047;-86
2021/04/15 15:04:35;;;;;;;4.80;2.35;;;;;;;;;;4969108;28;20035;-85
2021/04/15 15:07:02;;;;;;;4.18;2.30;;;;;;;;;;4952213;29;20091;-85
2021/04/15 15:09:30;;;;;;;4.20;2.30;;;;;;;;;;4952255;29;20134;-85